sensor_id;sensor_type;location;lat;lon;timestamp;temperature;humidity
11423;DHT22;5768;51.476;7.210;2023-04-25T00:03:47;7.90;16.50
11423;DHT22;5768;51.476;7.210;2023-04-25T00:08:51;8.10;16.30
11423;DHT22;5768;51.476;7.210;2023-04-25T00:13:54;8.10;16.30
11423;DHT22;5768;51.476;7.210;2023-04-25T00:18:56;8.20;16.40
11423;DHT22;5768;51.476;7.210;2023-04-25T00:24:00;8.10;16.50
11423;DHT22;5768;51.476;7.210;2023-04-25T00:29:02;8.20;16.60
11423;DHT22;5768;51.476;7.210;2023-04-25T00:34:06;8.00;16.70
11423;DHT22;5768;51.476;7.210;2023-04-25T00:39:10;7.90;16.90
11423;DHT22;5768;51.476;7.210;2023-04-25T00:44:13;8.20;16.80
11423;DHT22;5768;51.476;7.210;2023-04-25T00:49:17;8.30;16.80
11423;DHT22;5768;51.476;7.210;2023-04-25T00:54:21;8.20;16.70
11423;DHT22;5768;51.476;7.210;2023-04-25T00:59:23;8.30;16.80
11423;DHT22;5768;51.476;7.210;2023-04-25T01:04:27;8.30;16.90
11423;DHT22;5768;51.476;7.210;2023-04-25T01:09:31;8.40;16.90
11423;DHT22;5768;51.476;7.210;2023-04-25T01:14:34;8.60;16.90
11423;DHT22;5768;51.476;7.210;2023-04-25T01:19:37;8.50;17.10
11423;DHT22;5768;51.476;7.210;2023-04-25T01:24:40;8.40;17.00
11423;DHT22;5768;51.476;7.210;2023-04-25T01:29:43;8.30;17.40
11423;DHT22;5768;51.476;7.210;2023-04-25T01:34:46;8.40;17.40
11423;DHT22;5768;51.476;7.210;2023-04-25T01:39:49;8.20;17.40
11423;DHT22;5768;51.476;7.210;2023-04-25T01:44:52;8.30;17.40
11423;DHT22;5768;51.476;7.210;2023-04-25T01:49:54;8.30;17.60
11423;DHT22;5768;51.476;7.210;2023-04-25T01:54:58;8.40;17.40
11423;DHT22;5768;51.476;7.210;2023-04-25T02:00:05;8.30;17.40
11423;DHT22;5768;51.476;7.210;2023-04-25T02:05:09;8.30;17.40
11423;DHT22;5768;51.476;7.210;2023-04-25T02:10:13;8.30;17.40
11423;DHT22;5768;51.476;7.210;2023-04-25T02:15:15;8.40;17.40
11423;DHT22;5768;51.476;7.210;2023-04-25T02:20:17;8.50;17.30
11423;DHT22;5768;51.476;7.210;2023-04-25T02:25:23;8.50;17.40
11423;DHT22;5768;51.476;7.210;2023-04-25T02:30:25;8.60;17.30
11423;DHT22;5768;51.476;7.210;2023-04-25T02:35:28;8.20;17.40
11423;DHT22;5768;51.476;7.210;2023-04-25T02:40:31;8.10;18.00
11423;DHT22;5768;51.476;7.210;2023-04-25T02:45:34;8.00;18.30
11423;DHT22;5768;51.476;7.210;2023-04-25T02:50:36;8.00;18.60
11423;DHT22;5768;51.476;7.210;2023-04-25T02:55:40;7.90;18.70
11423;DHT22;5768;51.476;7.210;2023-04-25T03:00:42;7.60;19.30
11423;DHT22;5768;51.476;7.210;2023-04-25T03:05:44;7.60;19.60
11423;DHT22;5768;51.476;7.210;2023-04-25T03:10:48;7.70;19.70
11423;DHT22;5768;51.476;7.210;2023-04-25T03:15:52;7.70;19.80
11423;DHT22;5768;51.476;7.210;2023-04-25T03:20:54;7.80;20.00
11423;DHT22;5768;51.476;7.210;2023-04-25T03:25:58;7.80;19.70
11423;DHT22;5768;51.476;7.210;2023-04-25T03:31:04;7.70;19.70
11423;DHT22;5768;51.476;7.210;2023-04-25T03:36:07;7.80;19.70
11423;DHT22;5768;51.476;7.210;2023-04-25T03:41:11;7.90;19.60
11423;DHT22;5768;51.476;7.210;2023-04-25T03:46:13;7.70;19.70
11423;DHT22;5768;51.476;7.210;2023-04-25T03:51:16;7.60;20.10
11423;DHT22;5768;51.476;7.210;2023-04-25T03:56:19;7.70;20.00
11423;DHT22;5768;51.476;7.210;2023-04-25T04:01:22;7.90;20.00
11423;DHT22;5768;51.476;7.210;2023-04-25T04:06:24;7.70;19.90
11423;DHT22;5768;51.476;7.210;2023-04-25T04:11:28;7.80;20.00
11423;DHT22;5768;51.476;7.210;2023-04-25T04:16:32;7.40;18.30
11423;DHT22;5768;51.476;7.210;2023-04-25T04:21:34;7.40;17.70
11423;DHT22;5768;51.476;7.210;2023-04-25T04:26:39;7.60;17.50
11423;DHT22;5768;51.476;7.210;2023-04-25T04:31:41;7.30;17.60
11423;DHT22;5768;51.476;7.210;2023-04-25T04:36:44;7.00;18.60
11423;DHT22;5768;51.476;7.210;2023-04-25T04:41:48;6.90;18.90
11423;DHT22;5768;51.476;7.210;2023-04-25T04:46:51;7.00;19.00
11423;DHT22;5768;51.476;7.210;2023-04-25T04:51:53;7.40;18.70
11423;DHT22;5768;51.476;7.210;2023-04-25T04:56:58;7.40;18.70
11423;DHT22;5768;51.476;7.210;2023-04-25T05:02:00;7.40;18.30
11423;DHT22;5768;51.476;7.210;2023-04-25T05:07:02;7.50;18.20
11423;DHT22;5768;51.476;7.210;2023-04-25T05:12:06;7.70;17.90
11423;DHT22;5768;51.476;7.210;2023-04-25T05:17:10;7.80;17.60
11423;DHT22;5768;51.476;7.210;2023-04-25T05:22:13;7.90;17.80
11423;DHT22;5768;51.476;7.210;2023-04-25T05:27:19;8.10;17.50
11423;DHT22;5768;51.476;7.210;2023-04-25T05:32:22;8.00;17.60
11423;DHT22;5768;51.476;7.210;2023-04-25T05:37:25;7.90;18.10
11423;DHT22;5768;51.476;7.210;2023-04-25T05:42:29;8.10;18.10
11423;DHT22;5768;51.476;7.210;2023-04-25T05:47:31;8.10;18.50
11423;DHT22;5768;51.476;7.210;2023-04-25T05:52:36;8.40;18.20
11423;DHT22;5768;51.476;7.210;2023-04-25T05:57:40;8.30;18.20
11423;DHT22;5768;51.476;7.210;2023-04-25T06:02:45;8.30;18.40
11423;DHT22;5768;51.476;7.210;2023-04-25T06:07:47;8.20;18.90
11423;DHT22;5768;51.476;7.210;2023-04-25T06:12:51;8.20;18.40
11423;DHT22;5768;51.476;7.210;2023-04-25T06:17:53;8.30;18.60
11423;DHT22;5768;51.476;7.210;2023-04-25T06:22:56;8.60;18.30
11423;DHT22;5768;51.476;7.210;2023-04-25T06:27:59;8.70;18.30
11423;DHT22;5768;51.476;7.210;2023-04-25T06:33:01;8.50;18.40
11423;DHT22;5768;51.476;7.210;2023-04-25T06:38:04;8.70;17.90
11423;DHT22;5768;51.476;7.210;2023-04-25T06:43:07;9.10;17.70
11423;DHT22;5768;51.476;7.210;2023-04-25T06:48:10;9.20;17.10
11423;DHT22;5768;51.476;7.210;2023-04-25T06:53:12;9.40;16.60
11423;DHT22;5768;51.476;7.210;2023-04-25T06:58:16;9.10;16.30
11423;DHT22;5768;51.476;7.210;2023-04-25T07:03:18;9.30;16.30
11423;DHT22;5768;51.476;7.210;2023-04-25T07:08:21;9.00;16.10
11423;DHT22;5768;51.476;7.210;2023-04-25T07:13:24;8.90;16.20
11423;DHT22;5768;51.476;7.210;2023-04-25T07:18:27;8.40;16.40
11423;DHT22;5768;51.476;7.210;2023-04-25T07:23:29;8.80;16.20
11423;DHT22;5768;51.476;7.210;2023-04-25T07:28:33;8.70;15.90
11423;DHT22;5768;51.476;7.210;2023-04-25T07:33:35;9.00;15.90
11423;DHT22;5768;51.476;7.210;2023-04-25T07:38:37;9.10;15.40
11423;DHT22;5768;51.476;7.210;2023-04-25T07:43:41;9.50;15.10
11423;DHT22;5768;51.476;7.210;2023-04-25T07:48:43;10.30;15.00
11423;DHT22;5768;51.476;7.210;2023-04-25T07:53:46;9.80;14.40
11423;DHT22;5768;51.476;7.210;2023-04-25T07:58:49;9.70;14.40
11423;DHT22;5768;51.476;7.210;2023-04-25T08:03:51;9.50;14.30
11423;DHT22;5768;51.476;7.210;2023-04-25T08:08:54;10.20;14.10
11423;DHT22;5768;51.476;7.210;2023-04-25T08:13:57;10.30;14.10
11423;DHT22;5768;51.476;7.210;2023-04-25T08:19:00;10.00;13.70
11423;DHT22;5768;51.476;7.210;2023-04-25T08:24:02;10.20;13.90
11423;DHT22;5768;51.476;7.210;2023-04-25T08:29:06;10.70;12.90
11423;DHT22;5768;51.476;7.210;2023-04-25T08:34:09;11.10;12.40
11423;DHT22;5768;51.476;7.210;2023-04-25T08:39:11;11.40;11.90
11423;DHT22;5768;51.476;7.210;2023-04-25T08:44:16;10.70;12.80
11423;DHT22;5768;51.476;7.210;2023-04-25T08:49:18;10.30;12.80
11423;DHT22;5768;51.476;7.210;2023-04-25T08:54:21;11.10;12.10
11423;DHT22;5768;51.476;7.210;2023-04-25T08:59:30;11.20;12.10
11423;DHT22;5768;51.476;7.210;2023-04-25T09:04:33;11.60;12.50
11423;DHT22;5768;51.476;7.210;2023-04-25T09:09:36;11.60;11.90
11423;DHT22;5768;51.476;7.210;2023-04-25T09:14:39;11.50;11.70
11423;DHT22;5768;51.476;7.210;2023-04-25T09:19:43;11.90;11.50
11423;DHT22;5768;51.476;7.210;2023-04-25T09:24:46;12.30;11.20
11423;DHT22;5768;51.476;7.210;2023-04-25T09:29:59;11.90;11.10
11423;DHT22;5768;51.476;7.210;2023-04-25T09:35:07;11.80;11.30
11423;DHT22;5768;51.476;7.210;2023-04-25T09:40:12;12.10;11.20
11423;DHT22;5768;51.476;7.210;2023-04-25T09:45:15;12.20;11.20
11423;DHT22;5768;51.476;7.210;2023-04-25T09:50:18;12.10;11.20
11423;DHT22;5768;51.476;7.210;2023-04-25T09:55:21;12.40;11.10
11423;DHT22;5768;51.476;7.210;2023-04-25T10:00:25;12.60;11.10
11423;DHT22;5768;51.476;7.210;2023-04-25T10:05:29;12.80;10.80
11423;DHT22;5768;51.476;7.210;2023-04-25T10:10:34;12.20;10.20
11423;DHT22;5768;51.476;7.210;2023-04-25T10:15:41;12.20;10.10
11423;DHT22;5768;51.476;7.210;2023-04-25T10:20:44;12.70;10.10
11423;DHT22;5768;51.476;7.210;2023-04-25T10:25:46;12.20;10.10
11423;DHT22;5768;51.476;7.210;2023-04-25T10:31:01;12.10;10.10
11423;DHT22;5768;51.476;7.210;2023-04-25T10:36:15;11.50;10.20
11423;DHT22;5768;51.476;7.210;2023-04-25T10:41:22;11.60;10.20
11423;DHT22;5768;51.476;7.210;2023-04-25T10:46:27;11.30;10.10
11423;DHT22;5768;51.476;7.210;2023-04-25T10:51:32;11.40;10.30
11423;DHT22;5768;51.476;7.210;2023-04-25T10:56:39;11.80;10.40
11423;DHT22;5768;51.476;7.210;2023-04-25T11:01:47;11.30;10.50
11423;DHT22;5768;51.476;7.210;2023-04-25T11:07:01;10.60;10.90
11423;DHT22;5768;51.476;7.210;2023-04-25T11:12:09;10.90;11.50
11423;DHT22;5768;51.476;7.210;2023-04-25T11:17:15;10.60;12.30
11423;DHT22;5768;51.476;7.210;2023-04-25T11:22:21;10.90;12.70
11423;DHT22;5768;51.476;7.210;2023-04-25T11:27:25;11.10;12.80
11423;DHT22;5768;51.476;7.210;2023-04-25T11:32:37;10.80;12.50
11423;DHT22;5768;51.476;7.210;2023-04-25T11:37:55;11.20;12.40
11423;DHT22;5768;51.476;7.210;2023-04-25T11:43:00;11.70;12.00
11423;DHT22;5768;51.476;7.210;2023-04-25T11:48:10;12.20;11.30
11423;DHT22;5768;51.476;7.210;2023-04-25T11:53:13;12.00;10.80
11423;DHT22;5768;51.476;7.210;2023-04-25T11:58:15;11.80;10.70
11423;DHT22;5768;51.476;7.210;2023-04-25T12:03:22;12.10;10.50
11423;DHT22;5768;51.476;7.210;2023-04-25T12:08:26;11.80;10.20
11423;DHT22;5768;51.476;7.210;2023-04-25T12:13:31;12.60;10.00
11423;DHT22;5768;51.476;7.210;2023-04-25T12:18:52;13.30;9.60
11423;DHT22;5768;51.476;7.210;2023-04-25T12:24:50;13.20;9.50
11423;DHT22;5768;51.476;7.210;2023-04-25T12:30:17;13.70;9.40
11423;DHT22;5768;51.476;7.210;2023-04-25T12:35:32;14.40;9.10
11423;DHT22;5768;51.476;7.210;2023-04-25T12:59:30;13.40;9.50
11423;DHT22;5768;51.476;7.210;2023-04-25T13:04:48;12.20;10.00
11423;DHT22;5768;51.476;7.210;2023-04-25T13:10:15;12.30;10.00
11423;DHT22;5768;51.476;7.210;2023-04-25T13:15:32;12.00;10.10
11423;DHT22;5768;51.476;7.210;2023-04-25T13:20:36;11.60;10.10
11423;DHT22;5768;51.476;7.210;2023-04-25T13:25:53;11.90;10.30
11423;DHT22;5768;51.476;7.210;2023-04-25T13:30:59;11.90;10.10
11423;DHT22;5768;51.476;7.210;2023-04-25T13:36:05;11.40;10.20
11423;DHT22;5768;51.476;7.210;2023-04-25T13:41:11;10.90;10.50
11423;DHT22;5768;51.476;7.210;2023-04-25T13:46:29;11.00;10.60
11423;DHT22;5768;51.476;7.210;2023-04-25T13:51:41;11.60;10.60
11423;DHT22;5768;51.476;7.210;2023-04-25T13:56:44;12.20;10.30
11423;DHT22;5768;51.476;7.210;2023-04-25T14:01:52;16.00;9.70
11423;DHT22;5768;51.476;7.210;2023-04-25T14:06:55;21.30;8.30
11423;DHT22;5768;51.476;7.210;2023-04-25T14:11:58;20.60;7.80
11423;DHT22;5768;51.476;7.210;2023-04-25T14:17:03;23.90;7.00
11423;DHT22;5768;51.476;7.210;2023-04-25T14:22:07;23.80;6.80
11423;DHT22;5768;51.476;7.210;2023-04-25T14:27:10;23.00;6.90
11423;DHT22;5768;51.476;7.210;2023-04-25T14:32:14;26.70;6.60
11423;DHT22;5768;51.476;7.210;2023-04-25T14:37:17;27.30;6.10
11423;DHT22;5768;51.476;7.210;2023-04-25T14:42:22;27.00;5.90
11423;DHT22;5768;51.476;7.210;2023-04-25T14:47:26;29.00;5.80
11423;DHT22;5768;51.476;7.210;2023-04-25T14:52:28;27.50;5.80
11423;DHT22;5768;51.476;7.210;2023-04-25T14:57:31;29.10;5.40
11423;DHT22;5768;51.476;7.210;2023-04-25T15:02:42;24.00;5.50
11423;DHT22;5768;51.476;7.210;2023-04-25T15:07:47;19.70;6.60
11423;DHT22;5768;51.476;7.210;2023-04-25T15:12:59;17.60;7.30
11423;DHT22;5768;51.476;7.210;2023-04-25T15:18:04;16.10;8.30
11423;DHT22;5768;51.476;7.210;2023-04-25T15:23:06;17.30;8.20
11423;DHT22;5768;51.476;7.210;2023-04-25T15:28:09;17.80;8.20
11423;DHT22;5768;51.476;7.210;2023-04-25T15:33:18;17.90;8.00
11423;DHT22;5768;51.476;7.210;2023-04-25T15:38:20;21.90;7.10
11423;DHT22;5768;51.476;7.210;2023-04-25T15:43:23;22.10;6.70
11423;DHT22;5768;51.476;7.210;2023-04-25T15:48:31;23.30;6.70
11423;DHT22;5768;51.476;7.210;2023-04-25T15:53:33;20.80;6.60
11423;DHT22;5768;51.476;7.210;2023-04-25T15:58:36;17.90;7.10
11423;DHT22;5768;51.476;7.210;2023-04-25T16:03:46;17.70;7.40
11423;DHT22;5768;51.476;7.210;2023-04-25T16:08:50;19.80;7.20
11423;DHT22;5768;51.476;7.210;2023-04-25T16:13:57;21.50;6.90
11423;DHT22;5768;51.476;7.210;2023-04-25T16:19:03;17.90;7.40
11423;DHT22;5768;51.476;7.210;2023-04-25T16:24:06;16.00;7.90
11423;DHT22;5768;51.476;7.210;2023-04-25T16:29:25;18.10;7.70
11423;DHT22;5768;51.476;7.210;2023-04-25T16:34:40;17.40;7.90
11423;DHT22;5768;51.476;7.210;2023-04-25T16:39:43;16.60;8.20
11423;DHT22;5768;51.476;7.210;2023-04-25T16:44:48;17.50;8.20
11423;DHT22;5768;51.476;7.210;2023-04-25T16:49:52;20.00;7.60
11423;DHT22;5768;51.476;7.210;2023-04-25T16:54:55;21.30;7.10
11423;DHT22;5768;51.476;7.210;2023-04-25T17:00:05;18.20;7.50
11423;DHT22;5768;51.476;7.210;2023-04-25T17:05:12;16.20;7.80
11423;DHT22;5768;51.476;7.210;2023-04-25T17:10:14;14.20;8.00
11423;DHT22;5768;51.476;7.210;2023-04-25T17:15:19;13.70;8.20
11423;DHT22;5768;51.476;7.210;2023-04-25T17:20:23;13.20;8.60
11423;DHT22;5768;51.476;7.210;2023-04-25T17:25:31;13.10;8.80
11423;DHT22;5768;51.476;7.210;2023-04-25T17:30:37;13.20;8.60
11423;DHT22;5768;51.476;7.210;2023-04-25T17:35:56;13.50;8.60
11423;DHT22;5768;51.476;7.210;2023-04-25T17:41:01;14.10;8.70
11423;DHT22;5768;51.476;7.210;2023-04-25T17:46:03;13.70;8.60
11423;DHT22;5768;51.476;7.210;2023-04-25T17:51:10;13.50;8.80
11423;DHT22;5768;51.476;7.210;2023-04-25T17:56:16;13.10;8.70
11423;DHT22;5768;51.476;7.210;2023-04-25T18:01:33;14.30;8.60
11423;DHT22;5768;51.476;7.210;2023-04-25T18:06:40;13.90;8.50
11423;DHT22;5768;51.476;7.210;2023-04-25T18:11:46;12.70;8.70
11423;DHT22;5768;51.476;7.210;2023-04-25T18:16:50;12.10;8.90
11423;DHT22;5768;51.476;7.210;2023-04-25T18:22:03;11.70;9.00
11423;DHT22;5768;51.476;7.210;2023-04-25T18:27:13;11.80;9.20
11423;DHT22;5768;51.476;7.210;2023-04-25T18:32:15;11.10;9.30
11423;DHT22;5768;51.476;7.210;2023-04-25T18:37:19;10.90;9.50
11423;DHT22;5768;51.476;7.210;2023-04-25T18:42:21;10.50;9.70
11423;DHT22;5768;51.476;7.210;2023-04-25T18:47:23;10.50;9.80
11423;DHT22;5768;51.476;7.210;2023-04-25T18:52:27;10.30;9.90
11423;DHT22;5768;51.476;7.210;2023-04-25T18:57:29;10.10;10.10
11423;DHT22;5768;51.476;7.210;2023-04-25T19:02:33;10.20;10.20
11423;DHT22;5768;51.476;7.210;2023-04-25T19:07:38;9.70;10.40
11423;DHT22;5768;51.476;7.210;2023-04-25T19:12:41;9.50;10.50
11423;DHT22;5768;51.476;7.210;2023-04-25T19:17:43;9.20;10.50
11423;DHT22;5768;51.476;7.210;2023-04-25T19:22:47;9.20;10.50
11423;DHT22;5768;51.476;7.210;2023-04-25T19:27:49;9.30;10.40
11423;DHT22;5768;51.476;7.210;2023-04-25T19:32:52;9.10;10.50
11423;DHT22;5768;51.476;7.210;2023-04-25T19:37:57;9.00;10.60
11423;DHT22;5768;51.476;7.210;2023-04-25T19:43:00;8.40;10.70
11423;DHT22;5768;51.476;7.210;2023-04-25T19:48:02;8.60;10.80
11423;DHT22;5768;51.476;7.210;2023-04-25T19:53:06;8.60;11.00
11423;DHT22;5768;51.476;7.210;2023-04-25T19:58:09;8.70;11.10
11423;DHT22;5768;51.476;7.210;2023-04-25T20:03:14;8.70;11.30
11423;DHT22;5768;51.476;7.210;2023-04-25T20:08:17;8.60;11.30
11423;DHT22;5768;51.476;7.210;2023-04-25T20:13:20;8.50;11.60
11423;DHT22;5768;51.476;7.210;2023-04-25T20:18:22;8.40;11.70
11423;DHT22;5768;51.476;7.210;2023-04-25T20:23:27;8.20;11.80
11423;DHT22;5768;51.476;7.210;2023-04-25T20:28:29;8.10;11.90
11423;DHT22;5768;51.476;7.210;2023-04-25T20:33:33;8.00;11.90
11423;DHT22;5768;51.476;7.210;2023-04-25T20:38:39;8.00;12.00
11423;DHT22;5768;51.476;7.210;2023-04-25T20:43:41;8.00;12.10
11423;DHT22;5768;51.476;7.210;2023-04-25T20:48:44;8.00;12.20
11423;DHT22;5768;51.476;7.210;2023-04-25T20:53:50;8.00;12.20
11423;DHT22;5768;51.476;7.210;2023-04-25T20:58:55;7.80;12.30
11423;DHT22;5768;51.476;7.210;2023-04-25T21:03:58;7.90;12.40
11423;DHT22;5768;51.476;7.210;2023-04-25T21:09:02;7.80;12.40
11423;DHT22;5768;51.476;7.210;2023-04-25T21:14:06;7.90;12.40
11423;DHT22;5768;51.476;7.210;2023-04-25T21:19:09;7.80;12.50
11423;DHT22;5768;51.476;7.210;2023-04-25T21:24:13;7.70;12.50
11423;DHT22;5768;51.476;7.210;2023-04-25T21:29:16;7.60;12.70
11423;DHT22;5768;51.476;7.210;2023-04-25T21:34:18;7.70;12.70
11423;DHT22;5768;51.476;7.210;2023-04-25T21:39:27;7.50;12.60
11423;DHT22;5768;51.476;7.210;2023-04-25T21:44:30;7.70;12.80
11423;DHT22;5768;51.476;7.210;2023-04-25T21:49:33;7.60;12.80
11423;DHT22;5768;51.476;7.210;2023-04-25T21:54:37;7.40;12.80
11423;DHT22;5768;51.476;7.210;2023-04-25T21:59:40;7.40;13.00
11423;DHT22;5768;51.476;7.210;2023-04-25T22:04:45;7.40;13.00
11423;DHT22;5768;51.476;7.210;2023-04-25T22:09:49;7.20;13.00
11423;DHT22;5768;51.476;7.210;2023-04-25T22:14:52;7.40;13.10
11423;DHT22;5768;51.476;7.210;2023-04-25T22:19:54;7.30;13.10
11423;DHT22;5768;51.476;7.210;2023-04-25T22:24:58;7.30;13.20
11423;DHT22;5768;51.476;7.210;2023-04-25T22:30:00;7.30;13.20
11423;DHT22;5768;51.476;7.210;2023-04-25T22:35:05;7.20;13.20
11423;DHT22;5768;51.476;7.210;2023-04-25T22:40:11;7.20;13.20
11423;DHT22;5768;51.476;7.210;2023-04-25T22:45:13;7.10;13.30
11423;DHT22;5768;51.476;7.210;2023-04-25T22:50:16;7.10;13.30
11423;DHT22;5768;51.476;7.210;2023-04-25T22:55:21;7.10;13.40
11423;DHT22;5768;51.476;7.210;2023-04-25T23:00:23;6.90;13.50
11423;DHT22;5768;51.476;7.210;2023-04-25T23:05:28;6.90;13.70
11423;DHT22;5768;51.476;7.210;2023-04-25T23:10:34;6.80;13.50
11423;DHT22;5768;51.476;7.210;2023-04-25T23:15:36;6.80;13.60
11423;DHT22;5768;51.476;7.210;2023-04-25T23:20:39;6.70;13.80
11423;DHT22;5768;51.476;7.210;2023-04-25T23:25:44;6.60;13.70
11423;DHT22;5768;51.476;7.210;2023-04-25T23:30:46;6.70;13.80
11423;DHT22;5768;51.476;7.210;2023-04-25T23:35:48;6.60;13.90
11423;DHT22;5768;51.476;7.210;2023-04-25T23:40:52;6.50;13.90
11423;DHT22;5768;51.476;7.210;2023-04-25T23:45:54;6.40;13.90
11423;DHT22;5768;51.476;7.210;2023-04-25T23:50:57;6.50;14.00
11423;DHT22;5768;51.476;7.210;2023-04-25T23:56:01;6.50;14.10
